createdAt,value
2023-01-31T00:04:55.274Z,17.20
2023-01-31T00:10:01.314Z,17.70
2023-01-31T00:15:09.056Z,16.50
2023-01-31T00:20:15.492Z,14.00
2023-01-31T00:25:23.857Z,13.20
2023-01-31T00:30:31.348Z,13.40
2023-01-31T00:35:40.994Z,16.10
2023-01-31T00:40:53.709Z,14.30
2023-01-31T00:46:00.461Z,15.70
2023-01-31T00:51:09.313Z,17.80
2023-01-31T00:56:18.514Z,14.60
2023-01-31T01:01:27.360Z,16.40
2023-01-31T01:06:36.150Z,17.90
2023-01-31T01:11:43.931Z,17.50
2023-01-31T01:16:53.863Z,14.00
2023-01-31T01:22:04.879Z,15.10
2023-01-31T01:27:15.894Z,16.50
2023-01-31T01:32:25.568Z,15.10
2023-01-31T01:37:31.783Z,12.80
2023-01-31T01:42:38.271Z,15.50
2023-01-31T01:47:50.390Z,14.80
2023-01-31T01:53:02.037Z,11.40
2023-01-31T01:58:12.605Z,13.80
2023-01-31T02:03:22.697Z,13.00
2023-01-31T02:08:33.028Z,14.70
2023-01-31T02:13:41.800Z,16.20
2023-01-31T02:18:57.729Z,18.00
2023-01-31T02:24:37.185Z,11.60
2023-01-31T02:30:03.009Z,12.10
2023-01-31T02:35:21.376Z,14.90
2023-01-31T02:40:38.004Z,12.10
2023-01-31T02:45:53.985Z,13.20
2023-01-31T02:51:09.532Z,12.60
2023-01-31T02:56:23.764Z,13.40
2023-01-31T03:01:34.484Z,8.90
2023-01-31T03:07:01.805Z,17.20
2023-01-31T03:12:29.213Z,12.00
2023-01-31T03:17:47.216Z,12.60
2023-01-31T03:22:57.836Z,13.40
2023-01-31T03:28:09.297Z,15.50
2023-01-31T03:33:21.122Z,18.00
2023-01-31T03:38:34.408Z,12.60
2023-01-31T03:43:45.733Z,15.30
2023-01-31T03:49:00.911Z,16.40
2023-01-31T03:54:12.701Z,20.00
2023-01-31T03:59:25.359Z,15.70
2023-01-31T04:04:39.825Z,17.20
2023-01-31T04:09:46.770Z,21.60
2023-01-31T04:14:52.971Z,17.40
2023-01-31T04:20:00.469Z,19.00
2023-01-31T04:25:08.315Z,16.70
2023-01-31T04:30:15.407Z,17.30
2023-01-31T04:35:21.744Z,15.20
2023-01-31T04:40:29.273Z,17.40
2023-01-31T04:45:37.073Z,18.20
2023-01-31T04:50:46.257Z,20.70
2023-01-31T04:55:55.692Z,19.10
2023-01-31T05:01:01.989Z,22.60
2023-01-31T05:06:09.434Z,17.80
2023-01-31T05:11:16.066Z,16.40
2023-01-31T05:16:22.196Z,22.70
2023-01-31T05:21:29.772Z,19.40
2023-01-31T05:26:36.108Z,16.30
2023-01-31T05:31:42.336Z,23.30
2023-01-31T05:36:48.490Z,23.30
2023-01-31T05:41:55.015Z,18.60
2023-01-31T05:47:01.400Z,16.50
2023-01-31T05:52:07.647Z,20.20
2023-01-31T05:57:15.967Z,18.40
2023-01-31T06:02:22.526Z,21.40
2023-01-31T06:07:28.854Z,17.70
2023-01-31T06:12:36.784Z,14.20
2023-01-31T06:17:43.111Z,15.20
2023-01-31T06:22:50.624Z,15.40
2023-01-31T06:27:58.029Z,18.10
2023-01-31T06:33:04.849Z,21.10
2023-01-31T06:38:16.995Z,22.00
2023-01-31T06:43:24.618Z,23.10
2023-01-31T06:48:31.725Z,18.10
2023-01-31T06:53:38.134Z,20.20
2023-01-31T06:58:45.618Z,14.30
2023-01-31T07:03:53.005Z,17.50
2023-01-31T07:08:59.463Z,16.30
2023-01-31T07:14:06.855Z,12.00
2023-01-31T07:19:13.004Z,15.50
2023-01-31T07:24:19.517Z,16.70
2023-01-31T07:29:26.369Z,15.40
2023-01-31T07:34:32.692Z,15.80
2023-01-31T07:39:38.946Z,15.70
2023-01-31T07:44:47.301Z,12.60
2023-01-31T07:49:54.033Z,16.30
2023-01-31T07:55:00.677Z,15.60
2023-01-31T08:00:32.028Z,11.00
2023-01-31T08:05:39.407Z,15.20
2023-01-31T08:10:47.395Z,17.60
2023-01-31T08:15:54.917Z,17.60
2023-01-31T08:21:01.344Z,20.20
2023-01-31T08:26:11.142Z,16.70
2023-01-31T08:31:19.632Z,11.90
2023-01-31T08:36:31.725Z,12.50
2023-01-31T08:41:40.939Z,14.40
2023-01-31T08:46:47.225Z,14.40
2023-01-31T08:51:54.636Z,12.30
2023-01-31T08:57:01.031Z,13.70
2023-01-31T09:02:10.093Z,15.50
2023-01-31T09:07:21.711Z,16.70
2023-01-31T09:12:28.798Z,16.00
2023-01-31T09:17:36.232Z,15.40
2023-01-31T09:22:44.460Z,13.20
2023-01-31T09:27:52.265Z,17.20
2023-01-31T09:33:01.241Z,14.50
2023-01-31T09:38:07.640Z,20.20
2023-01-31T09:43:14.944Z,18.50
2023-01-31T09:48:26.943Z,17.70
2023-01-31T09:53:36.444Z,13.70
2023-01-31T09:58:55.155Z,18.10
2023-01-31T10:04:20.476Z,17.00
2023-01-31T10:09:32.050Z,15.20
2023-01-31T10:14:43.379Z,15.10
2023-01-31T10:25:03.681Z,17.10
2023-01-31T10:30:17.799Z,14.10
2023-01-31T10:35:31.856Z,14.30
2023-01-31T10:40:42.362Z,16.00
2023-01-31T10:45:48.882Z,14.40
2023-01-31T10:51:16.998Z,11.60
2023-01-31T10:56:29.842Z,16.10
2023-01-31T11:01:37.989Z,13.70
2023-01-31T11:06:44.089Z,17.90
2023-01-31T11:11:59.902Z,14.60
2023-01-31T11:17:10.020Z,13.40
2023-01-31T11:22:26.350Z,12.70
2023-01-31T11:27:38.423Z,14.40
2023-01-31T11:32:46.138Z,13.80
2023-01-31T11:37:55.319Z,15.00
2023-01-31T11:43:04.125Z,12.50
2023-01-31T11:48:18.818Z,14.40
2023-01-31T11:53:33.742Z,15.90
2023-01-31T11:58:43.087Z,14.80
2023-01-31T12:04:03.041Z,12.10
2023-01-31T12:09:23.175Z,17.10
2023-01-31T12:14:40.094Z,12.40
2023-01-31T12:19:58.629Z,14.60
2023-01-31T12:25:17.038Z,9.70
2023-01-31T12:30:35.220Z,9.00
2023-01-31T12:35:54.632Z,16.20
2023-01-31T12:41:16.528Z,14.60
2023-01-31T12:46:32.236Z,14.50
2023-01-31T12:51:51.796Z,13.80
2023-01-31T12:57:21.790Z,11.10
2023-01-31T13:02:44.654Z,10.50
2023-01-31T13:07:58.061Z,17.70
2023-01-31T13:13:06.450Z,12.30
2023-01-31T13:18:15.114Z,11.20
2023-01-31T13:23:32.432Z,10.80
2023-01-31T13:28:44.627Z,10.50
2023-01-31T13:33:56.472Z,12.70
2023-01-31T13:39:08.942Z,7.70
2023-01-31T13:44:17.455Z,12.40
2023-01-31T13:49:29.433Z,10.30
2023-01-31T13:54:41.276Z,10.30
2023-01-31T13:59:56.454Z,16.80
2023-01-31T14:05:30.729Z,16.50
2023-01-31T14:15:47.774Z,10.50
2023-01-31T14:20:53.714Z,15.20
2023-01-31T14:25:59.482Z,11.30
2023-01-31T14:31:14.182Z,12.90
2023-01-31T14:36:53.598Z,14.20
2023-01-31T14:42:20.424Z,18.30
2023-01-31T14:47:39.948Z,13.40
2023-01-31T14:55:48.897Z,20.90
2023-01-31T15:00:58.738Z,13.70
2023-01-31T15:06:22.133Z,19.70
2023-01-31T15:11:43.404Z,16.60
2023-01-31T15:16:58.126Z,16.50
2023-01-31T15:22:07.917Z,15.30
2023-01-31T15:27:18.573Z,10.40
2023-01-31T15:32:27.583Z,12.30
2023-01-31T15:37:35.380Z,18.10
2023-01-31T15:42:41.053Z,11.30
2023-01-31T15:47:56.620Z,14.90
2023-01-31T15:53:06.784Z,14.50
2023-01-31T15:58:20.035Z,19.10
2023-01-31T16:03:27.960Z,13.50
2023-01-31T16:08:35.989Z,16.00
2023-01-31T16:13:42.941Z,20.10
2023-01-31T16:18:51.169Z,17.40
2023-01-31T16:24:02.309Z,15.10
2023-01-31T16:29:21.782Z,20.30
2023-01-31T16:34:30.255Z,24.30
2023-01-31T16:39:39.979Z,23.30
2023-01-31T16:44:47.454Z,25.70
2023-01-31T16:50:13.115Z,26.30
2023-01-31T16:55:21.796Z,21.10
2023-01-31T17:00:36.049Z,20.60
2023-01-31T17:05:47.226Z,19.90
2023-01-31T17:10:53.445Z,26.70
2023-01-31T17:15:59.250Z,19.50
2023-01-31T17:21:06.382Z,22.20
2023-01-31T17:26:17.635Z,18.00
2023-01-31T17:31:24.869Z,22.60
2023-01-31T17:36:30.740Z,20.30
2023-01-31T17:41:36.869Z,30.10
2023-01-31T17:46:43.179Z,22.40
2023-01-31T17:51:49.127Z,22.20
2023-01-31T17:56:55.040Z,27.90
2023-01-31T18:02:01.122Z,22.80
2023-01-31T18:07:07.021Z,27.30
2023-01-31T18:12:12.830Z,21.90
2023-01-31T18:17:19.885Z,19.10
2023-01-31T18:22:25.699Z,21.50
2023-01-31T18:27:31.515Z,19.70
2023-01-31T18:32:38.087Z,22.50
2023-01-31T18:37:44.000Z,32.40
2023-01-31T18:42:49.604Z,31.30
2023-01-31T18:47:55.291Z,25.70
2023-01-31T18:53:01.678Z,24.90
2023-01-31T18:58:07.359Z,25.20
2023-01-31T19:03:13.203Z,28.30
2023-01-31T19:08:19.072Z,30.80
2023-01-31T19:13:27.587Z,22.80
2023-01-31T19:18:33.836Z,22.30
2023-01-31T19:23:39.397Z,32.20
2023-01-31T19:28:46.651Z,40.50
2023-01-31T19:33:54.104Z,41.20
2023-01-31T19:39:01.673Z,29.60
2023-01-31T19:44:07.788Z,26.50
2023-01-31T19:49:13.739Z,25.40
2023-01-31T19:54:20.813Z,26.20
2023-01-31T19:59:29.653Z,24.70
2023-01-31T20:04:35.147Z,23.00
2023-01-31T20:09:40.920Z,21.00
2023-01-31T20:14:46.543Z,18.80
2023-01-31T20:19:52.229Z,24.30
2023-01-31T20:24:58.295Z,21.10
2023-01-31T20:30:04.345Z,19.20
2023-01-31T20:35:10.689Z,23.20
2023-01-31T20:40:16.869Z,17.20
2023-01-31T20:45:28.212Z,19.10
2023-01-31T20:50:33.749Z,15.90
2023-01-31T20:55:39.277Z,15.90
2023-01-31T21:00:45.151Z,15.60
2023-01-31T21:05:51.292Z,16.50
2023-01-31T21:10:58.578Z,12.60
2023-01-31T21:16:07.305Z,14.10
2023-01-31T21:21:22.782Z,12.40
2023-01-31T21:26:28.624Z,14.40
2023-01-31T21:31:35.627Z,12.40
2023-01-31T21:36:41.284Z,11.80
2023-01-31T21:42:06.051Z,11.80
2023-01-31T21:47:11.766Z,13.80
2023-01-31T21:52:17.359Z,12.30
2023-01-31T21:57:23.259Z,12.30
2023-01-31T22:02:29.022Z,11.40
2023-01-31T22:07:34.888Z,10.50
2023-01-31T22:12:40.709Z,15.00
2023-01-31T22:17:46.305Z,10.00
2023-01-31T22:22:52.073Z,15.30
2023-01-31T22:27:57.860Z,10.00
2023-01-31T22:33:03.606Z,13.00
2023-01-31T22:38:09.508Z,12.30
2023-01-31T22:43:17.278Z,14.40
2023-01-31T22:48:24.114Z,12.10
2023-01-31T22:53:33.967Z,9.30
2023-01-31T22:58:39.909Z,10.40
2023-01-31T23:03:46.082Z,11.10
2023-01-31T23:09:20.455Z,10.90
2023-01-31T23:14:26.384Z,11.40
2023-01-31T23:19:32.230Z,10.50
2023-01-31T23:24:37.965Z,11.50
2023-01-31T23:29:43.562Z,10.60
2023-01-31T23:34:49.691Z,11.80
2023-01-31T23:39:55.508Z,12.20
2023-01-31T23:45:01.192Z,11.30
2023-01-31T23:50:08.364Z,11.90
2023-01-31T23:55:14.359Z,9.90
